createdAt,value
2022-08-29T00:00:59.725Z,9.02
2022-08-29T00:03:28.042Z,10.43
2022-08-29T00:05:56.941Z,10.80
2022-08-29T00:08:24.880Z,14.20
2022-08-29T00:10:51.883Z,10.55
2022-08-29T00:13:19.357Z,7.22
2022-08-29T00:15:46.786Z,11.10
2022-08-29T00:18:16.091Z,7.10
2022-08-29T00:20:44.796Z,9.23
2022-08-29T00:23:12.068Z,13.88
2022-08-29T00:25:39.492Z,12.48
2022-08-29T00:28:07.251Z,9.80
2022-08-29T00:30:35.459Z,12.02
2022-08-29T00:33:02.622Z,9.10
2022-08-29T00:35:35.251Z,8.80
2022-08-29T00:38:03.867Z,14.07
2022-08-29T00:40:54.242Z,12.02
2022-08-29T00:43:35.579Z,10.13
2022-08-29T00:46:40.553Z,9.50
2022-08-29T00:49:13.747Z,10.27
2022-08-29T00:51:41.315Z,15.45
2022-08-29T00:54:10.462Z,10.98
2022-08-29T00:56:39.447Z,7.75
2022-08-29T00:59:36.973Z,11.65
2022-08-29T01:02:05.649Z,9.05
2022-08-29T01:04:33.642Z,9.40
2022-08-29T01:07:01.142Z,8.52
2022-08-29T01:09:29.776Z,11.07
2022-08-29T01:12:29.352Z,8.90
2022-08-29T01:15:00.996Z,11.80
2022-08-29T01:17:44.682Z,11.35
2022-08-29T01:20:25.685Z,9.73
2022-08-29T01:23:29.639Z,8.60
2022-08-29T01:25:57.809Z,10.55
2022-08-29T01:28:34.098Z,11.10
2022-08-29T01:31:50.154Z,12.40
2022-08-29T01:34:03.843Z,10.27
2022-08-29T01:36:34.853Z,11.93
2022-08-29T01:39:01.900Z,14.07
2022-08-29T01:41:28.955Z,9.18
2022-08-29T01:43:56.828Z,12.45
2022-08-29T01:46:30.875Z,13.98
2022-08-29T01:48:58.534Z,10.65
2022-08-29T01:51:25.722Z,11.52
2022-08-29T01:53:53.316Z,13.70
2022-08-29T01:56:26.361Z,10.35
2022-08-29T01:58:55.266Z,11.02
2022-08-29T02:01:26.293Z,12.73
2022-08-29T02:03:54.908Z,9.57
2022-08-29T02:06:21.868Z,10.27
2022-08-29T02:08:48.717Z,10.55
2022-08-29T02:11:17.417Z,11.82
2022-08-29T02:13:49.869Z,12.77
2022-08-29T02:16:17.426Z,13.77
2022-08-29T02:18:44.864Z,9.75
2022-08-29T02:21:17.232Z,11.93
2022-08-29T02:23:44.503Z,10.05
2022-08-29T02:26:11.402Z,9.18
2022-08-29T02:28:38.758Z,11.88
2022-08-29T02:31:06.451Z,12.25
2022-08-29T02:33:33.526Z,8.80
2022-08-29T02:36:01.997Z,9.68
2022-08-29T02:38:29.623Z,10.70
2022-08-29T02:40:56.966Z,8.93
2022-08-29T02:43:24.827Z,7.65
2022-08-29T02:45:52.378Z,10.13
2022-08-29T02:48:19.584Z,10.00
2022-08-29T02:50:52.222Z,9.73
2022-08-29T02:53:22.472Z,16.83
2022-08-29T02:55:50.343Z,10.18
2022-08-29T02:58:17.610Z,10.65
2022-08-29T03:00:44.904Z,10.13
2022-08-29T03:03:12.043Z,11.52
2022-08-29T03:05:39.688Z,11.88
2022-08-29T03:08:09.065Z,11.93
2022-08-29T03:10:36.958Z,12.80
2022-08-29T03:13:05.414Z,16.00
2022-08-29T03:15:32.760Z,13.50
2022-08-29T03:17:59.716Z,13.05
2022-08-29T03:20:27.062Z,13.48
2022-08-29T03:22:54.853Z,13.10
2022-08-29T03:25:23.545Z,12.30
2022-08-29T03:27:50.620Z,18.08
2022-08-29T03:30:18.243Z,13.55
2022-08-29T03:32:46.001Z,12.77
2022-08-29T03:35:13.761Z,13.13
2022-08-29T03:37:41.290Z,21.08
2022-08-29T03:40:09.576Z,14.68
2022-08-29T03:42:37.066Z,13.85
2022-08-29T03:45:06.470Z,14.70
2022-08-29T03:47:33.791Z,13.32
2022-08-29T03:50:01.110Z,14.38
2022-08-29T03:52:28.376Z,13.23
2022-08-29T03:54:55.640Z,16.20
2022-08-29T03:57:22.916Z,16.23
2022-08-29T03:59:54.071Z,17.45
2022-08-29T04:02:21.307Z,13.23
2022-08-29T04:05:08.241Z,16.58
2022-08-29T04:07:39.082Z,16.13
2022-08-29T04:10:08.284Z,16.80
2022-08-29T04:12:35.224Z,15.27
2022-08-29T04:15:02.237Z,14.63
2022-08-29T04:17:29.343Z,17.60
2022-08-29T04:19:56.667Z,16.67
2022-08-29T04:22:23.980Z,14.70
2022-08-29T04:24:51.304Z,17.00
2022-08-29T04:27:18.171Z,14.43
2022-08-29T04:29:48.416Z,20.00
2022-08-29T04:32:18.358Z,19.05
2022-08-29T04:34:45.227Z,20.08
2022-08-29T04:37:12.145Z,21.63
2022-08-29T04:39:39.233Z,17.63
2022-08-29T04:42:06.522Z,16.13
2022-08-29T04:44:34.532Z,17.38
2022-08-29T04:47:01.493Z,18.98
2022-08-29T04:49:28.621Z,21.65
2022-08-29T04:51:55.888Z,19.13
2022-08-29T04:54:23.439Z,19.20
2022-08-29T04:56:50.341Z,19.60
2022-08-29T04:59:18.370Z,22.75
2022-08-29T05:01:47.824Z,22.17
2022-08-29T05:04:14.810Z,23.52
2022-08-29T05:06:41.987Z,27.52
2022-08-29T05:09:09.005Z,24.45
2022-08-29T05:11:36.321Z,27.00
2022-08-29T05:14:03.242Z,28.10
2022-08-29T05:16:31.262Z,26.20
2022-08-29T05:18:59.553Z,53.10
2022-08-29T05:21:35.174Z,26.45
2022-08-29T05:24:05.606Z,27.00
2022-08-29T05:26:36.016Z,24.50
2022-08-29T05:29:04.057Z,27.38
2022-08-29T05:31:37.075Z,26.10
2022-08-29T05:34:14.039Z,28.20
2022-08-29T05:36:52.581Z,22.95
2022-08-29T05:39:19.867Z,25.98
2022-08-29T05:41:46.759Z,25.55
2022-08-29T05:44:13.669Z,22.08
2022-08-29T05:46:41.266Z,24.50
2022-08-29T05:49:08.908Z,24.10
2022-08-29T05:51:39.705Z,29.60
2022-08-29T05:54:07.691Z,24.55
2022-08-29T05:56:34.968Z,25.52
2022-08-29T05:59:02.045Z,22.52
2022-08-29T06:01:32.662Z,25.30
2022-08-29T06:04:00.951Z,25.75
2022-08-29T06:06:29.186Z,27.95
2022-08-29T06:08:57.302Z,23.52
2022-08-29T06:11:28.212Z,22.77
2022-08-29T06:13:55.849Z,23.70
2022-08-29T06:16:24.839Z,27.85
2022-08-29T06:18:52.035Z,45.22
2022-08-29T06:21:19.910Z,20.48
2022-08-29T06:23:47.874Z,21.83
2022-08-29T06:26:16.049Z,20.42
2022-08-29T06:28:46.270Z,22.45
2022-08-29T06:31:17.661Z,23.52
2022-08-29T06:33:44.615Z,20.95
2022-08-29T06:36:12.580Z,22.20
2022-08-29T06:38:39.827Z,22.13
2022-08-29T06:41:13.041Z,21.48
2022-08-29T06:43:40.633Z,24.05
2022-08-29T06:46:08.800Z,24.20
2022-08-29T06:48:36.255Z,24.98
2022-08-29T06:51:04.149Z,23.05
2022-08-29T06:53:31.967Z,24.88
2022-08-29T06:56:05.544Z,37.83
2022-08-29T06:58:33.261Z,25.98
2022-08-29T07:01:06.943Z,24.88
2022-08-29T07:03:34.447Z,26.83
2022-08-29T07:06:01.400Z,25.85
2022-08-29T07:08:28.758Z,30.27
2022-08-29T07:10:55.698Z,29.33
2022-08-29T07:13:22.588Z,27.95
2022-08-29T07:15:49.624Z,30.08
2022-08-29T07:18:16.741Z,28.00
2022-08-29T07:20:44.200Z,28.80
2022-08-29T07:23:11.339Z,28.13
2022-08-29T07:25:39.042Z,31.02
2022-08-29T07:28:06.626Z,31.63
2022-08-29T07:30:34.983Z,26.90
2022-08-29T07:33:02.056Z,26.65
2022-08-29T07:35:30.920Z,30.27
2022-08-29T07:38:01.782Z,31.23
2022-08-29T07:40:29.608Z,30.42
2022-08-29T07:42:56.633Z,26.25
2022-08-29T07:45:23.547Z,23.35
2022-08-29T07:47:50.440Z,22.60
2022-08-29T07:50:17.378Z,19.02
2022-08-29T07:52:44.464Z,18.83
2022-08-29T07:55:12.077Z,19.92
2022-08-29T07:57:39.891Z,25.80
2022-08-29T08:00:12.219Z,18.88
2022-08-29T08:02:39.325Z,20.87
2022-08-29T08:05:07.284Z,19.30
2022-08-29T08:07:35.399Z,19.35
2022-08-29T08:10:04.000Z,17.60
2022-08-29T08:12:30.963Z,17.15
2022-08-29T08:14:58.423Z,16.35
2022-08-29T08:17:25.998Z,19.50
2022-08-29T08:19:52.954Z,20.42
2022-08-29T08:22:20.253Z,16.52
2022-08-29T08:24:48.610Z,15.23
2022-08-29T08:27:15.871Z,21.70
2022-08-29T08:29:44.332Z,18.58
2022-08-29T08:32:11.208Z,19.30
2022-08-29T08:34:38.108Z,18.90
2022-08-29T08:37:09.155Z,20.98
2022-08-29T08:39:37.091Z,19.73
2022-08-29T08:42:31.697Z,18.40
2022-08-29T08:45:26.866Z,20.30
2022-08-29T08:48:01.120Z,19.25
2022-08-29T08:50:43.574Z,29.17
2022-08-29T08:53:19.806Z,21.13
2022-08-29T08:55:58.101Z,22.77
2022-08-29T08:58:34.212Z,21.40
2022-08-29T09:01:14.604Z,24.42
2022-08-29T09:03:56.834Z,20.42
2022-08-29T09:06:45.430Z,20.98
2022-08-29T09:09:18.589Z,19.48
2022-08-29T09:12:14.408Z,17.45
2022-08-29T09:15:03.528Z,17.00
2022-08-29T09:17:53.385Z,20.13
2022-08-29T09:20:24.889Z,16.20
2022-08-29T09:23:06.041Z,17.17
2022-08-29T09:25:36.172Z,16.42
2022-08-29T09:28:07.014Z,17.77
2022-08-29T09:30:36.717Z,15.48
2022-08-29T09:33:09.179Z,17.48
2022-08-29T09:35:44.984Z,15.57
2022-08-29T09:38:17.654Z,21.40
2022-08-29T09:40:53.438Z,22.67
2022-08-29T09:43:42.825Z,17.38
2022-08-29T09:46:25.092Z,20.33
2022-08-29T09:48:58.086Z,20.83
2022-08-29T09:51:31.043Z,20.90
2022-08-29T09:56:40.912Z,19.85
2022-08-29T09:59:39.739Z,17.20
2022-08-29T10:02:43.936Z,14.13
2022-08-29T10:05:35.099Z,16.60
2022-08-29T10:08:05.610Z,15.02
2022-08-29T10:10:36.298Z,15.25
2022-08-29T10:13:03.604Z,10.98
2022-08-29T10:15:59.558Z,13.73
2022-08-29T10:18:50.087Z,12.70
2022-08-29T10:21:32.692Z,11.73
2022-08-29T10:24:21.109Z,13.20
2022-08-29T10:27:07.179Z,10.73
2022-08-29T10:29:39.844Z,11.00
2022-08-29T10:32:30.663Z,11.88
2022-08-29T10:35:15.973Z,16.83
2022-08-29T10:38:12.735Z,15.77
2022-08-29T10:40:43.191Z,9.30
2022-08-29T10:43:20.118Z,13.57
2022-08-29T10:45:56.098Z,15.30
2022-08-29T10:49:21.204Z,9.50
2022-08-29T10:51:53.549Z,9.63
2022-08-29T10:54:29.174Z,12.55
2022-08-29T10:56:56.166Z,11.35
2022-08-29T10:59:58.146Z,11.07
2022-08-29T11:02:38.925Z,14.57
2022-08-29T11:05:18.803Z,9.15
2022-08-29T11:08:32.000Z,11.90
2022-08-29T11:10:59.177Z,8.85
2022-08-29T11:13:40.707Z,13.23
2022-08-29T11:16:17.484Z,9.63
2022-08-29T11:18:58.269Z,8.90
2022-08-29T11:21:40.665Z,8.13
2022-08-29T11:24:10.237Z,9.25
2022-08-29T11:26:37.487Z,8.70
2022-08-29T11:29:33.579Z,9.27
2022-08-29T11:32:36.309Z,25.27
2022-08-29T11:35:20.669Z,10.63
2022-08-29T11:38:05.977Z,9.68
2022-08-29T11:40:48.243Z,8.38
2022-08-29T11:43:20.832Z,10.30
2022-08-29T11:46:01.706Z,5.85
2022-08-29T11:48:41.871Z,5.55
2022-08-29T11:51:29.597Z,8.63
2022-08-29T11:53:57.171Z,8.90
2022-08-29T11:56:28.742Z,8.90
2022-08-29T11:58:59.145Z,5.25
2022-08-29T12:01:25.978Z,7.95
2022-08-29T12:03:55.472Z,6.93
2022-08-29T12:06:40.835Z,4.47
2022-08-29T12:09:14.367Z,7.72
2022-08-29T12:12:02.853Z,5.75
2022-08-29T12:14:37.875Z,8.05
2022-08-29T12:17:08.279Z,8.05
2022-08-29T12:19:50.022Z,8.15
2022-08-29T12:22:48.148Z,5.03
2022-08-29T12:25:41.434Z,7.28
2022-08-29T12:28:32.313Z,7.40
2022-08-29T12:30:59.442Z,5.60
2022-08-29T12:33:43.306Z,6.18
2022-08-29T12:36:52.524Z,7.20
2022-08-29T12:39:58.555Z,10.68
2022-08-29T12:43:02.850Z,7.20
2022-08-29T12:45:31.987Z,9.18
2022-08-29T12:48:04.834Z,10.48
2022-08-29T12:53:02.748Z,6.68
2022-08-29T12:55:37.000Z,10.25
2022-08-29T12:58:04.299Z,5.57
2022-08-29T13:00:32.928Z,8.75
2022-08-29T13:02:59.830Z,6.60
2022-08-29T13:05:29.634Z,6.55
2022-08-29T13:07:59.709Z,7.57
2022-08-29T13:10:28.217Z,4.80
2022-08-29T13:13:06.489Z,6.18
2022-08-29T13:15:33.677Z,24.95
2022-08-29T13:18:01.460Z,4.97
2022-08-29T13:20:46.184Z,5.50
2022-08-29T13:23:13.416Z,8.20
2022-08-29T13:26:09.411Z,9.35
2022-08-29T13:28:51.052Z,5.35
2022-08-29T13:31:19.043Z,7.20
2022-08-29T13:33:46.351Z,4.80
2022-08-29T13:36:31.113Z,6.95
2022-08-29T13:39:41.094Z,7.13
2022-08-29T13:42:18.846Z,5.70
2022-08-29T13:44:46.055Z,7.43
2022-08-29T13:47:25.219Z,6.72
2022-08-29T13:49:56.569Z,6.68
2022-08-29T13:52:24.005Z,6.50
2022-08-29T13:57:26.393Z,4.68
2022-08-29T13:59:53.438Z,6.10
2022-08-29T14:02:20.701Z,8.93
2022-08-29T14:04:48.445Z,7.15
2022-08-29T14:07:28.067Z,4.18
2022-08-29T14:09:55.342Z,5.78
2022-08-29T14:12:33.427Z,3.33
2022-08-29T14:15:06.793Z,6.57
2022-08-29T14:17:36.951Z,6.03
2022-08-29T14:20:04.997Z,4.47
2022-08-29T14:22:31.901Z,5.07
2022-08-29T14:24:58.849Z,5.45
2022-08-29T14:27:25.953Z,8.07
2022-08-29T14:29:53.221Z,5.30
2022-08-29T14:32:20.631Z,10.35
2022-08-29T14:34:50.913Z,21.63
2022-08-29T14:37:20.126Z,10.68
2022-08-29T14:39:49.990Z,4.13
2022-08-29T14:42:18.186Z,5.97
2022-08-29T14:44:45.384Z,8.90
2022-08-29T14:47:12.753Z,7.88
2022-08-29T14:49:40.229Z,4.82
2022-08-29T14:52:07.266Z,5.05
2022-08-29T14:54:34.326Z,6.88
2022-08-29T14:57:01.242Z,5.93
2022-08-29T14:59:28.211Z,4.82
2022-08-29T15:01:55.813Z,7.63
2022-08-29T15:04:34.936Z,6.55
2022-08-29T15:07:05.339Z,4.82
2022-08-29T15:09:32.645Z,7.82
2022-08-29T15:11:59.691Z,5.63
2022-08-29T15:14:26.675Z,6.28
2022-08-29T15:16:53.526Z,4.07
2022-08-29T15:22:09.230Z,4.53
2022-08-29T15:24:36.647Z,9.07
2022-08-29T15:27:04.355Z,7.05
2022-08-29T15:29:31.636Z,4.53
2022-08-29T15:31:58.683Z,11.82
2022-08-29T15:34:26.160Z,7.32
2022-08-29T15:36:54.891Z,6.95
2022-08-29T15:39:22.605Z,10.93
2022-08-29T15:41:50.085Z,7.32
2022-08-29T15:44:17.624Z,7.15
2022-08-29T15:46:51.036Z,11.00
2022-08-29T15:49:19.916Z,7.45
2022-08-29T15:51:48.407Z,4.68
2022-08-29T15:54:15.860Z,6.78
2022-08-29T15:56:43.137Z,11.05
2022-08-29T15:59:13.098Z,7.50
2022-08-29T16:01:45.794Z,6.45
2022-08-29T16:04:14.024Z,8.98
2022-08-29T16:06:41.424Z,11.02
2022-08-29T16:09:15.040Z,7.93
2022-08-29T16:11:46.228Z,5.10
2022-08-29T16:17:02.137Z,10.27
2022-08-29T16:19:29.809Z,8.80
2022-08-29T16:21:59.963Z,9.43
2022-08-29T16:24:29.884Z,7.90
2022-08-29T16:26:59.004Z,7.85
2022-08-29T16:29:26.476Z,8.98
2022-08-29T16:31:58.039Z,8.80
2022-08-29T16:34:26.533Z,6.57
2022-08-29T16:36:59.320Z,11.05
2022-08-29T16:39:27.296Z,7.30
2022-08-29T16:41:54.422Z,8.35
2022-08-29T16:44:22.322Z,12.27
2022-08-29T16:46:49.623Z,7.35
2022-08-29T16:49:17.041Z,22.58
2022-08-29T16:51:44.345Z,67.28
2022-08-29T16:54:12.176Z,6.82
2022-08-29T16:56:39.858Z,9.82
2022-08-29T16:59:07.499Z,14.82
2022-08-29T17:01:44.708Z,7.78
2022-08-29T17:04:24.047Z,14.43
2022-08-29T17:06:52.458Z,8.07
2022-08-29T17:09:21.722Z,10.98
2022-08-29T17:11:49.051Z,13.15
2022-08-29T17:14:16.924Z,15.48
2022-08-29T17:16:46.215Z,13.35
2022-08-29T17:19:15.188Z,14.45
2022-08-29T17:21:43.329Z,11.45
2022-08-29T17:24:11.266Z,8.90
2022-08-29T17:26:42.740Z,15.43
2022-08-29T17:29:11.062Z,14.52
2022-08-29T17:31:38.631Z,15.55
2022-08-29T17:34:07.532Z,14.68
2022-08-29T17:36:36.688Z,19.83
2022-08-29T17:39:05.494Z,23.38
2022-08-29T17:41:34.876Z,18.17
2022-08-29T17:44:02.093Z,15.30
2022-08-29T17:46:29.690Z,10.68
2022-08-29T17:48:56.893Z,11.50
2022-08-29T17:51:24.156Z,15.23
2022-08-29T17:53:51.642Z,20.00
2022-08-29T17:56:25.124Z,12.57
2022-08-29T17:58:52.028Z,14.80
2022-08-29T18:01:19.108Z,11.00
2022-08-29T18:03:46.979Z,12.18
2022-08-29T18:06:15.432Z,12.70
2022-08-29T18:08:45.881Z,13.85
2022-08-29T18:13:43.170Z,11.68
2022-08-29T18:16:10.729Z,14.10
2022-08-29T18:18:38.934Z,10.45
2022-08-29T18:21:06.349Z,11.90
2022-08-29T18:23:33.594Z,11.43
2022-08-29T18:26:01.019Z,18.52
2022-08-29T18:28:28.311Z,19.70
2022-08-29T18:30:55.944Z,8.88
2022-08-29T18:33:23.210Z,11.05
2022-08-29T18:35:52.078Z,12.15
2022-08-29T18:38:19.490Z,8.88
2022-08-29T18:40:47.621Z,15.55
2022-08-29T18:43:21.509Z,11.05
2022-08-29T18:45:49.893Z,12.27
2022-08-29T18:48:17.487Z,10.00
2022-08-29T18:50:44.830Z,10.88
2022-08-29T18:53:19.710Z,9.50
2022-08-29T18:55:50.981Z,11.65
2022-08-29T18:58:21.130Z,11.48
2022-08-29T19:00:48.085Z,9.48
2022-08-29T19:03:15.503Z,10.73
2022-08-29T19:05:48.478Z,9.57
2022-08-29T19:08:21.085Z,10.95
2022-08-29T19:10:48.823Z,8.38
2022-08-29T19:13:17.573Z,7.72
2022-08-29T19:15:47.310Z,8.60
2022-08-29T19:18:15.828Z,12.68
2022-08-29T19:21:01.793Z,11.45
2022-08-29T19:23:41.111Z,13.45
2022-08-29T19:26:12.128Z,14.55
2022-08-29T19:31:14.980Z,12.85
2022-08-29T19:33:43.394Z,9.95
2022-08-29T19:36:10.434Z,9.50
2022-08-29T19:38:37.774Z,12.02
2022-08-29T19:41:05.617Z,14.00
2022-08-29T19:43:33.806Z,11.60
2022-08-29T19:46:02.533Z,8.60
2022-08-29T19:48:29.605Z,14.65
2022-08-29T19:50:57.186Z,10.32
2022-08-29T19:53:26.173Z,12.18
2022-08-29T19:55:53.973Z,12.63
2022-08-29T19:58:22.880Z,9.57
2022-08-29T20:00:58.153Z,6.93
2022-08-29T20:03:25.414Z,9.80
2022-08-29T20:05:52.673Z,7.13
2022-08-29T20:08:21.213Z,11.80
2022-08-29T20:10:50.184Z,13.00
2022-08-29T20:13:17.528Z,13.75
2022-08-29T20:15:45.076Z,15.65
2022-08-29T20:18:12.974Z,9.15
2022-08-29T20:20:40.318Z,8.73
2022-08-29T20:23:08.065Z,11.13
2022-08-29T20:25:35.491Z,10.00
2022-08-29T20:28:04.075Z,10.45
2022-08-29T20:30:33.017Z,8.43
2022-08-29T20:33:00.321Z,13.15
2022-08-29T20:35:46.315Z,13.10
2022-08-29T20:38:13.615Z,10.80
2022-08-29T20:40:46.702Z,11.93
2022-08-29T20:45:44.149Z,11.60
2022-08-29T20:48:12.509Z,13.40
2022-08-29T20:50:39.954Z,11.82
2022-08-29T20:53:07.587Z,9.55
2022-08-29T20:55:34.970Z,8.80
2022-08-29T20:58:02.156Z,11.85
2022-08-29T21:00:29.109Z,9.75
2022-08-29T21:03:14.917Z,9.25
2022-08-29T21:05:45.704Z,9.90
2022-08-29T21:08:20.022Z,12.70
2022-08-29T21:10:47.914Z,48.58
2022-08-29T21:13:15.337Z,9.93
2022-08-29T21:15:44.214Z,6.90
2022-08-29T21:18:13.463Z,8.38
2022-08-29T21:20:54.012Z,6.43
2022-08-29T21:23:23.007Z,6.30
2022-08-29T21:25:58.878Z,8.77
2022-08-29T21:28:27.775Z,20.83
2022-08-29T21:30:54.944Z,11.52
2022-08-29T21:33:22.809Z,12.75
2022-08-29T21:35:50.339Z,7.78
2022-08-29T21:38:18.472Z,9.95
2022-08-29T21:40:50.416Z,10.13
2022-08-29T21:43:19.370Z,8.23
2022-08-29T21:45:47.245Z,7.63
2022-08-29T21:48:14.535Z,6.30
2022-08-29T21:50:41.521Z,9.73
2022-08-29T21:53:15.194Z,10.18
2022-08-29T21:55:42.451Z,9.32
2022-08-29T21:58:09.471Z,11.23
2022-08-29T22:00:37.084Z,10.18
2022-08-29T22:03:06.849Z,10.38
2022-08-29T22:05:34.503Z,10.10
2022-08-29T22:08:04.329Z,10.27
2022-08-29T22:10:35.283Z,10.70
2022-08-29T22:13:04.173Z,11.55
2022-08-29T22:15:49.676Z,10.05
2022-08-29T22:18:17.092Z,8.82
2022-08-29T22:20:46.732Z,12.23
2022-08-29T22:23:18.855Z,11.80
2022-08-29T22:25:47.630Z,8.02
2022-08-29T22:28:15.243Z,6.88
2022-08-29T22:30:42.177Z,8.82
2022-08-29T22:33:10.714Z,9.13
2022-08-29T22:35:44.168Z,10.13
2022-08-29T22:38:11.511Z,10.98
2022-08-29T22:40:40.483Z,9.07
2022-08-29T22:43:07.696Z,12.45
2022-08-29T22:45:34.552Z,10.75
2022-08-29T22:48:01.845Z,13.85
2022-08-29T22:50:29.244Z,10.95
2022-08-29T22:52:57.906Z,12.45
2022-08-29T22:57:51.672Z,9.98
2022-08-29T23:00:21.547Z,8.55
2022-08-29T23:02:49.007Z,12.15
2022-08-29T23:05:17.227Z,11.10
2022-08-29T23:07:44.307Z,12.23
2022-08-29T23:10:13.019Z,10.27
2022-08-29T23:12:40.876Z,11.88
2022-08-29T23:15:12.479Z,7.93
2022-08-29T23:17:39.775Z,6.70
2022-08-29T23:20:09.394Z,7.97
2022-08-29T23:22:38.760Z,10.18
2022-08-29T23:25:06.965Z,9.63
2022-08-29T23:27:34.482Z,8.43
2022-08-29T23:30:02.044Z,12.70
2022-08-29T23:32:29.041Z,8.95
2022-08-29T23:34:56.203Z,14.45
2022-08-29T23:37:23.488Z,13.10
2022-08-29T23:39:50.967Z,15.05
2022-08-29T23:42:18.302Z,12.73
2022-08-29T23:44:45.880Z,8.27
2022-08-29T23:47:15.671Z,11.23
2022-08-29T23:49:42.773Z,10.95
2022-08-29T23:52:10.086Z,10.18
2022-08-29T23:54:37.397Z,8.40
2022-08-29T23:57:04.876Z,11.38
2022-08-29T23:59:51.725Z,9.82
